Terminal Aerodrome Forecast
Issued by NWS Spokane, WA

Home | Current Version | Previous Version | Text Only | Print | Product List | Glossary On
Versions: 1 2 3 4 5 6 7 8 9 10 11 12 13 14 15 16 17 18 19 20 21 22 23 24 25
000
FTUS46 KOTX 042320
TAFGEG
TAF
KGEG 042320Z 0500/0524 26008KT P6SM VCSH FEW070 BKN120
     FM050130 22006KT P6SM -SHRA BKN070 BKN100
     FM050300 02005KT P6SM SCT070 BKN100
     FM050800 19005KT P6SM TSRA BKN080CB BKN120
     FM051100 18005KT P6SM VCSH BKN080 BKN120 OVC200=

USA.gov is the U.S. government's official web portal to all federal, state and local government web resources and services.